sensor_id;sensor_type;location;lat;lon;timestamp;P1;durP1;ratioP1;P2;durP2;ratioP2
13163;SDS011;6647;53.688;10.746;2023-06-14T00:00:36;8.63;;;3.40;;
13163;SDS011;6647;53.688;10.746;2023-06-14T00:01:39;3.63;;;2.88;;
13163;SDS011;6647;53.688;10.746;2023-06-14T00:02:39;3.90;;;3.17;;
13163;SDS011;6647;53.688;10.746;2023-06-14T00:03:40;4.50;;;3.00;;
13163;SDS011;6647;53.688;10.746;2023-06-14T00:04:40;5.20;;;3.00;;
13163;SDS011;6647;53.688;10.746;2023-06-14T00:05:41;5.25;;;3.15;;
13163;SDS011;6647;53.688;10.746;2023-06-14T00:06:44;3.90;;;2.90;;
13163;SDS011;6647;53.688;10.746;2023-06-14T00:07:51;6.60;;;3.08;;
13163;SDS011;6647;53.688;10.746;2023-06-14T00:08:54;6.05;;;2.70;;
13163;SDS011;6647;53.688;10.746;2023-06-14T00:09:54;4.27;;;3.03;;
13163;SDS011;6647;53.688;10.746;2023-06-14T00:10:55;5.27;;;3.30;;
13163;SDS011;6647;53.688;10.746;2023-06-14T00:11:55;4.97;;;2.77;;
13163;SDS011;6647;53.688;10.746;2023-06-14T00:12:56;12.53;;;3.50;;
13163;SDS011;6647;53.688;10.746;2023-06-14T00:13:57;8.23;;;2.87;;
13163;SDS011;6647;53.688;10.746;2023-06-14T00:14:57;4.72;;;3.05;;
13163;SDS011;6647;53.688;10.746;2023-06-14T00:15:58;6.67;;;3.43;;
13163;SDS011;6647;53.688;10.746;2023-06-14T00:16:58;9.33;;;3.30;;
13163;SDS011;6647;53.688;10.746;2023-06-14T00:17:59;7.70;;;3.23;;
13163;SDS011;6647;53.688;10.746;2023-06-14T00:19:01;4.63;;;3.35;;
13163;SDS011;6647;53.688;10.746;2023-06-14T00:20:03;10.18;;;3.90;;
13163;SDS011;6647;53.688;10.746;2023-06-14T00:21:06;7.10;;;3.17;;
13163;SDS011;6647;53.688;10.746;2023-06-14T00:22:06;10.70;;;3.40;;
13163;SDS011;6647;53.688;10.746;2023-06-14T00:23:07;6.67;;;3.20;;
13163;SDS011;6647;53.688;10.746;2023-06-14T00:24:07;5.87;;;3.13;;
13163;SDS011;6647;53.688;10.746;2023-06-14T00:25:08;4.30;;;3.30;;
13163;SDS011;6647;53.688;10.746;2023-06-14T00:26:08;6.00;;;3.00;;
13163;SDS011;6647;53.688;10.746;2023-06-14T00:27:09;6.60;;;3.60;;
13163;SDS011;6647;53.688;10.746;2023-06-14T00:28:10;5.30;;;3.50;;
13163;SDS011;6647;53.688;10.746;2023-06-14T00:29:10;8.73;;;3.30;;
13163;SDS011;6647;53.688;10.746;2023-06-14T00:30:11;5.20;;;2.77;;
13163;SDS011;6647;53.688;10.746;2023-06-14T00:31:11;3.35;;;2.88;;
13163;SDS011;6647;53.688;10.746;2023-06-14T00:32:14;7.00;;;3.28;;
13163;SDS011;6647;53.688;10.746;2023-06-14T00:33:14;4.40;;;2.90;;
13163;SDS011;6647;53.688;10.746;2023-06-14T00:34:15;7.93;;;3.20;;
13163;SDS011;6647;53.688;10.746;2023-06-14T00:35:15;5.33;;;3.10;;
13163;SDS011;6647;53.688;10.746;2023-06-14T00:36:16;4.13;;;3.40;;
13163;SDS011;6647;53.688;10.746;2023-06-14T00:37:16;6.63;;;3.67;;
13163;SDS011;6647;53.688;10.746;2023-06-14T00:38:17;6.30;;;3.17;;
13163;SDS011;6647;53.688;10.746;2023-06-14T00:39:17;6.57;;;3.97;;
13163;SDS011;6647;53.688;10.746;2023-06-14T00:40:18;9.53;;;3.50;;
13163;SDS011;6647;53.688;10.746;2023-06-14T00:41:18;4.07;;;3.10;;
13163;SDS011;6647;53.688;10.746;2023-06-14T00:42:25;9.43;;;3.37;;
13163;SDS011;6647;53.688;10.746;2023-06-14T00:43:25;5.75;;;3.20;;
13163;SDS011;6647;53.688;10.746;2023-06-14T00:44:26;6.00;;;3.53;;
13163;SDS011;6647;53.688;10.746;2023-06-14T00:45:26;4.43;;;3.27;;
13163;SDS011;6647;53.688;10.746;2023-06-14T00:46:27;5.30;;;2.73;;
13163;SDS011;6647;53.688;10.746;2023-06-14T00:47:27;9.70;;;2.83;;
13163;SDS011;6647;53.688;10.746;2023-06-14T00:48:28;7.27;;;3.63;;
13163;SDS011;6647;53.688;10.746;2023-06-14T00:49:28;7.77;;;3.97;;
13163;SDS011;6647;53.688;10.746;2023-06-14T00:50:29;5.80;;;3.10;;
13163;SDS011;6647;53.688;10.746;2023-06-14T00:51:33;3.35;;;3.00;;
13163;SDS011;6647;53.688;10.746;2023-06-14T00:52:34;3.30;;;3.00;;
13163;SDS011;6647;53.688;10.746;2023-06-14T00:53:35;7.80;;;3.35;;
13163;SDS011;6647;53.688;10.746;2023-06-14T00:54:35;6.47;;;3.03;;
13163;SDS011;6647;53.688;10.746;2023-06-14T00:55:36;5.13;;;3.17;;
13163;SDS011;6647;53.688;10.746;2023-06-14T00:56:36;6.50;;;3.50;;
13163;SDS011;6647;53.688;10.746;2023-06-14T00:57:37;3.27;;;2.83;;
13163;SDS011;6647;53.688;10.746;2023-06-14T00:58:38;4.82;;;3.08;;
13163;SDS011;6647;53.688;10.746;2023-06-14T00:59:43;6.57;;;3.77;;
13163;SDS011;6647;53.688;10.746;2023-06-14T01:00:44;8.35;;;3.88;;
13163;SDS011;6647;53.688;10.746;2023-06-14T01:01:45;6.90;;;3.20;;
13163;SDS011;6647;53.688;10.746;2023-06-14T01:02:46;6.50;;;3.17;;
13163;SDS011;6647;53.688;10.746;2023-06-14T01:03:47;8.15;;;3.50;;
13163;SDS011;6647;53.688;10.746;2023-06-14T01:04:48;7.80;;;3.43;;
13163;SDS011;6647;53.688;10.746;2023-06-14T01:05:51;6.03;;;3.15;;
13163;SDS011;6647;53.688;10.746;2023-06-14T01:07:06;6.93;;;3.72;;
13163;SDS011;6647;53.688;10.746;2023-06-14T01:09:38;7.85;;;2.90;;
13163;SDS011;6647;53.688;10.746;2023-06-14T01:11:02;5.00;;;3.28;;
13163;SDS011;6647;53.688;10.746;2023-06-14T01:12:13;6.63;;;3.30;;
13163;SDS011;6647;53.688;10.746;2023-06-14T01:14:29;9.23;;;3.75;;
13163;SDS011;6647;53.688;10.746;2023-06-14T01:15:31;8.52;;;3.90;;
13163;SDS011;6647;53.688;10.746;2023-06-14T01:16:32;5.70;;;3.63;;
13163;SDS011;6647;53.688;10.746;2023-06-14T01:17:34;5.70;;;3.42;;
13163;SDS011;6647;53.688;10.746;2023-06-14T01:18:35;6.03;;;3.93;;
13163;SDS011;6647;53.688;10.746;2023-06-14T01:19:36;6.20;;;3.30;;
13163;SDS011;6647;53.688;10.746;2023-06-14T01:20:36;4.67;;;3.17;;
13163;SDS011;6647;53.688;10.746;2023-06-14T01:21:38;4.90;;;3.25;;
13163;SDS011;6647;53.688;10.746;2023-06-14T01:22:50;5.18;;;3.13;;
13163;SDS011;6647;53.688;10.746;2023-06-14T01:23:52;9.27;;;2.95;;
13163;SDS011;6647;53.688;10.746;2023-06-14T01:24:55;14.75;;;3.88;;
13163;SDS011;6647;53.688;10.746;2023-06-14T01:25:55;4.70;;;3.67;;
13163;SDS011;6647;53.688;10.746;2023-06-14T01:26:56;5.63;;;3.93;;
13163;SDS011;6647;53.688;10.746;2023-06-14T01:27:59;6.80;;;3.30;;
13163;SDS011;6647;53.688;10.746;2023-06-14T01:29:01;5.55;;;3.30;;
13163;SDS011;6647;53.688;10.746;2023-06-14T01:30:02;8.83;;;3.53;;
13163;SDS011;6647;53.688;10.746;2023-06-14T01:31:03;6.60;;;3.80;;
13163;SDS011;6647;53.688;10.746;2023-06-14T01:32:05;5.72;;;4.20;;
13163;SDS011;6647;53.688;10.746;2023-06-14T01:33:06;11.10;;;4.10;;
13163;SDS011;6647;53.688;10.746;2023-06-14T01:34:07;6.23;;;3.53;;
13163;SDS011;6647;53.688;10.746;2023-06-14T01:35:09;8.27;;;3.92;;
13163;SDS011;6647;53.688;10.746;2023-06-14T01:36:09;7.37;;;3.50;;
13163;SDS011;6647;53.688;10.746;2023-06-14T01:37:11;8.47;;;3.50;;
13163;SDS011;6647;53.688;10.746;2023-06-14T01:38:15;9.50;;;3.20;;
13163;SDS011;6647;53.688;10.746;2023-06-14T01:39:20;3.80;;;3.38;;
13163;SDS011;6647;53.688;10.746;2023-06-14T01:40:21;7.97;;;3.30;;
13163;SDS011;6647;53.688;10.746;2023-06-14T01:41:22;9.70;;;4.10;;
13163;SDS011;6647;53.688;10.746;2023-06-14T01:42:23;7.57;;;3.67;;
13163;SDS011;6647;53.688;10.746;2023-06-14T01:43:25;8.43;;;3.63;;
13163;SDS011;6647;53.688;10.746;2023-06-14T01:44:26;6.15;;;3.20;;
13163;SDS011;6647;53.688;10.746;2023-06-14T01:45:27;5.13;;;3.80;;
13163;SDS011;6647;53.688;10.746;2023-06-14T01:46:29;7.95;;;3.55;;
13163;SDS011;6647;53.688;10.746;2023-06-14T01:47:29;9.13;;;3.93;;
13163;SDS011;6647;53.688;10.746;2023-06-14T01:48:30;4.50;;;3.77;;
13163;SDS011;6647;53.688;10.746;2023-06-14T01:49:33;6.60;;;4.00;;
13163;SDS011;6647;53.688;10.746;2023-06-14T01:50:34;6.38;;;3.83;;
13163;SDS011;6647;53.688;10.746;2023-06-14T01:51:35;8.07;;;3.78;;
13163;SDS011;6647;53.688;10.746;2023-06-14T01:52:36;5.67;;;3.47;;
13163;SDS011;6647;53.688;10.746;2023-06-14T01:53:37;10.30;;;3.80;;
13163;SDS011;6647;53.688;10.746;2023-06-14T01:54:38;8.83;;;3.80;;
13163;SDS011;6647;53.688;10.746;2023-06-14T01:55:43;9.02;;;3.45;;
13163;SDS011;6647;53.688;10.746;2023-06-14T01:56:44;4.40;;;3.65;;
13163;SDS011;6647;53.688;10.746;2023-06-14T01:57:45;7.83;;;4.23;;
13163;SDS011;6647;53.688;10.746;2023-06-14T01:58:45;6.17;;;3.63;;
13163;SDS011;6647;53.688;10.746;2023-06-14T01:59:46;4.70;;;3.47;;
13163;SDS011;6647;53.688;10.746;2023-06-14T02:00:51;11.98;;;3.58;;
13163;SDS011;6647;53.688;10.746;2023-06-14T02:01:56;7.97;;;4.50;;
13163;SDS011;6647;53.688;10.746;2023-06-14T02:02:56;5.33;;;3.70;;
13163;SDS011;6647;53.688;10.746;2023-06-14T02:03:57;7.47;;;3.20;;
13163;SDS011;6647;53.688;10.746;2023-06-14T02:04:57;10.73;;;4.30;;
13163;SDS011;6647;53.688;10.746;2023-06-14T02:05:58;5.80;;;3.80;;
13163;SDS011;6647;53.688;10.746;2023-06-14T02:06:59;8.73;;;3.63;;
13163;SDS011;6647;53.688;10.746;2023-06-14T02:07:59;7.90;;;3.70;;
13163;SDS011;6647;53.688;10.746;2023-06-14T02:09:00;5.33;;;3.70;;
13163;SDS011;6647;53.688;10.746;2023-06-14T02:10:02;10.23;;;4.00;;
13163;SDS011;6647;53.688;10.746;2023-06-14T02:11:05;4.85;;;3.60;;
13163;SDS011;6647;53.688;10.746;2023-06-14T02:12:06;6.70;;;3.93;;
13163;SDS011;6647;53.688;10.746;2023-06-14T02:13:06;5.57;;;4.30;;
13163;SDS011;6647;53.688;10.746;2023-06-14T02:14:07;5.77;;;4.17;;
13163;SDS011;6647;53.688;10.746;2023-06-14T02:15:11;7.65;;;3.55;;
13163;SDS011;6647;53.688;10.746;2023-06-14T02:16:16;8.88;;;4.38;;
13163;SDS011;6647;53.688;10.746;2023-06-14T02:17:17;5.72;;;3.92;;
13163;SDS011;6647;53.688;10.746;2023-06-14T02:18:18;5.80;;;3.93;;
13163;SDS011;6647;53.688;10.746;2023-06-14T02:19:19;7.40;;;3.50;;
13163;SDS011;6647;53.688;10.746;2023-06-14T02:20:20;5.18;;;3.63;;
13163;SDS011;6647;53.688;10.746;2023-06-14T02:21:21;10.60;;;4.03;;
13163;SDS011;6647;53.688;10.746;2023-06-14T02:22:21;6.53;;;3.77;;
13163;SDS011;6647;53.688;10.746;2023-06-14T02:23:22;4.63;;;3.60;;
13163;SDS011;6647;53.688;10.746;2023-06-14T02:24:22;7.03;;;3.83;;
13163;SDS011;6647;53.688;10.746;2023-06-14T02:25:24;9.20;;;4.47;;
13163;SDS011;6647;53.688;10.746;2023-06-14T02:26:25;6.00;;;4.22;;
13163;SDS011;6647;53.688;10.746;2023-06-14T02:27:28;7.32;;;3.72;;
13163;SDS011;6647;53.688;10.746;2023-06-14T02:28:29;7.83;;;3.90;;
13163;SDS011;6647;53.688;10.746;2023-06-14T02:29:30;8.23;;;4.40;;
13163;SDS011;6647;53.688;10.746;2023-06-14T02:30:30;6.77;;;4.30;;
13163;SDS011;6647;53.688;10.746;2023-06-14T02:31:32;8.88;;;4.35;;
13163;SDS011;6647;53.688;10.746;2023-06-14T02:32:33;8.82;;;4.20;;
13163;SDS011;6647;53.688;10.746;2023-06-14T02:33:36;6.65;;;4.18;;
13163;SDS011;6647;53.688;10.746;2023-06-14T02:34:36;6.90;;;3.73;;
13163;SDS011;6647;53.688;10.746;2023-06-14T02:35:37;8.50;;;4.30;;
13163;SDS011;6647;53.688;10.746;2023-06-14T02:36:37;9.77;;;4.13;;
13163;SDS011;6647;53.688;10.746;2023-06-14T02:37:45;9.60;;;4.05;;
13163;SDS011;6647;53.688;10.746;2023-06-14T02:38:46;5.30;;;3.57;;
13163;SDS011;6647;53.688;10.746;2023-06-14T02:39:47;9.17;;;3.90;;
13163;SDS011;6647;53.688;10.746;2023-06-14T02:40:47;7.43;;;3.97;;
13163;SDS011;6647;53.688;10.746;2023-06-14T02:41:48;6.50;;;3.90;;
13163;SDS011;6647;53.688;10.746;2023-06-14T02:42:48;4.43;;;3.97;;
13163;SDS011;6647;53.688;10.746;2023-06-14T02:43:48;5.83;;;3.73;;
13163;SDS011;6647;53.688;10.746;2023-06-14T02:44:49;11.73;;;4.67;;
13163;SDS011;6647;53.688;10.746;2023-06-14T02:45:51;6.20;;;3.88;;
13163;SDS011;6647;53.688;10.746;2023-06-14T02:46:52;9.63;;;4.33;;
13163;SDS011;6647;53.688;10.746;2023-06-14T02:47:53;5.60;;;3.60;;
13163;SDS011;6647;53.688;10.746;2023-06-14T02:48:55;7.15;;;4.30;;
13163;SDS011;6647;53.688;10.746;2023-06-14T02:49:56;9.63;;;4.07;;
13163;SDS011;6647;53.688;10.746;2023-06-14T02:50:57;5.47;;;4.07;;
13163;SDS011;6647;53.688;10.746;2023-06-14T02:51:57;8.27;;;4.40;;
13163;SDS011;6647;53.688;10.746;2023-06-14T02:52:58;7.97;;;4.10;;
13163;SDS011;6647;53.688;10.746;2023-06-14T02:53:58;6.10;;;3.90;;
13163;SDS011;6647;53.688;10.746;2023-06-14T02:54:58;8.53;;;4.30;;
13163;SDS011;6647;53.688;10.746;2023-06-14T02:55:59;6.43;;;3.80;;
13163;SDS011;6647;53.688;10.746;2023-06-14T02:56:59;10.27;;;3.50;;
13163;SDS011;6647;53.688;10.746;2023-06-14T02:58:00;8.10;;;3.70;;
13163;SDS011;6647;53.688;10.746;2023-06-14T02:59:01;11.00;;;4.10;;
13163;SDS011;6647;53.688;10.746;2023-06-14T03:00:02;6.50;;;4.30;;
13163;SDS011;6647;53.688;10.746;2023-06-14T03:01:04;11.88;;;4.55;;
13163;SDS011;6647;53.688;10.746;2023-06-14T03:02:05;7.40;;;4.00;;
13163;SDS011;6647;53.688;10.746;2023-06-14T03:03:06;8.67;;;4.80;;
13163;SDS011;6647;53.688;10.746;2023-06-14T03:04:13;9.35;;;4.25;;
13163;SDS011;6647;53.688;10.746;2023-06-14T03:05:14;6.10;;;3.63;;
13163;SDS011;6647;53.688;10.746;2023-06-14T03:06:15;7.32;;;3.70;;
13163;SDS011;6647;53.688;10.746;2023-06-14T03:07:16;13.43;;;4.80;;
13163;SDS011;6647;53.688;10.746;2023-06-14T03:08:19;8.85;;;4.25;;
13163;SDS011;6647;53.688;10.746;2023-06-14T03:09:21;13.07;;;4.67;;
13163;SDS011;6647;53.688;10.746;2023-06-14T03:10:22;12.70;;;4.38;;
13163;SDS011;6647;53.688;10.746;2023-06-14T03:11:23;7.63;;;4.22;;
13163;SDS011;6647;53.688;10.746;2023-06-14T03:12:24;7.40;;;3.90;;
13163;SDS011;6647;53.688;10.746;2023-06-14T03:13:25;8.23;;;4.30;;
13163;SDS011;6647;53.688;10.746;2023-06-14T03:14:26;7.47;;;3.67;;
13163;SDS011;6647;53.688;10.746;2023-06-14T03:15:27;9.00;;;4.70;;
13163;SDS011;6647;53.688;10.746;2023-06-14T03:16:27;5.87;;;4.30;;
13163;SDS011;6647;53.688;10.746;2023-06-14T03:17:30;6.60;;;4.30;;
13163;SDS011;6647;53.688;10.746;2023-06-14T03:18:33;5.35;;;4.43;;
13163;SDS011;6647;53.688;10.746;2023-06-14T03:19:35;8.55;;;4.50;;
13163;SDS011;6647;53.688;10.746;2023-06-14T03:20:36;7.60;;;4.03;;
13163;SDS011;6647;53.688;10.746;2023-06-14T03:21:37;8.43;;;4.50;;
13163;SDS011;6647;53.688;10.746;2023-06-14T03:22:37;8.60;;;4.43;;
13163;SDS011;6647;53.688;10.746;2023-06-14T03:23:39;9.48;;;4.55;;
13163;SDS011;6647;53.688;10.746;2023-06-14T03:24:40;10.67;;;4.60;;
13163;SDS011;6647;53.688;10.746;2023-06-14T03:25:41;5.72;;;4.13;;
13163;SDS011;6647;53.688;10.746;2023-06-14T03:26:42;8.90;;;4.40;;
13163;SDS011;6647;53.688;10.746;2023-06-14T03:27:42;9.53;;;4.50;;
13163;SDS011;6647;53.688;10.746;2023-06-14T03:28:43;8.97;;;4.90;;
13163;SDS011;6647;53.688;10.746;2023-06-14T03:29:45;6.80;;;4.18;;
13163;SDS011;6647;53.688;10.746;2023-06-14T03:30:45;9.33;;;4.80;;
13163;SDS011;6647;53.688;10.746;2023-06-14T03:31:59;8.30;;;4.13;;
13163;SDS011;6647;53.688;10.746;2023-06-14T03:33:00;8.95;;;4.90;;
13163;SDS011;6647;53.688;10.746;2023-06-14T03:34:05;6.40;;;4.50;;
13163;SDS011;6647;53.688;10.746;2023-06-14T03:35:05;6.77;;;3.87;;
13163;SDS011;6647;53.688;10.746;2023-06-14T03:36:06;8.33;;;4.17;;
13163;SDS011;6647;53.688;10.746;2023-06-14T03:37:07;8.70;;;4.70;;
13163;SDS011;6647;53.688;10.746;2023-06-14T03:38:07;11.23;;;4.60;;
13163;SDS011;6647;53.688;10.746;2023-06-14T03:39:08;7.30;;;4.43;;
13163;SDS011;6647;53.688;10.746;2023-06-14T03:40:08;10.93;;;3.80;;
13163;SDS011;6647;53.688;10.746;2023-06-14T03:41:09;6.50;;;4.20;;
13163;SDS011;6647;53.688;10.746;2023-06-14T03:42:09;10.23;;;4.67;;
13163;SDS011;6647;53.688;10.746;2023-06-14T03:43:10;9.37;;;4.10;;
13163;SDS011;6647;53.688;10.746;2023-06-14T03:44:11;5.27;;;4.00;;
13163;SDS011;6647;53.688;10.746;2023-06-14T03:45:11;6.50;;;4.37;;
13163;SDS011;6647;53.688;10.746;2023-06-14T03:46:12;6.50;;;4.00;;
13163;SDS011;6647;53.688;10.746;2023-06-14T03:47:13;6.85;;;4.25;;
13163;SDS011;6647;53.688;10.746;2023-06-14T03:48:13;7.50;;;4.73;;
13163;SDS011;6647;53.688;10.746;2023-06-14T03:49:14;10.07;;;4.83;;
13163;SDS011;6647;53.688;10.746;2023-06-14T03:50:17;8.63;;;4.43;;
13163;SDS011;6647;53.688;10.746;2023-06-14T03:51:18;9.55;;;4.57;;
13163;SDS011;6647;53.688;10.746;2023-06-14T03:52:19;8.10;;;4.60;;
13163;SDS011;6647;53.688;10.746;2023-06-14T03:53:19;8.03;;;4.00;;
13163;SDS011;6647;53.688;10.746;2023-06-14T03:54:23;8.48;;;4.40;;
13163;SDS011;6647;53.688;10.746;2023-06-14T03:55:24;8.87;;;4.53;;
13163;SDS011;6647;53.688;10.746;2023-06-14T03:56:27;7.35;;;4.32;;
13163;SDS011;6647;53.688;10.746;2023-06-14T03:57:29;8.60;;;4.43;;
13163;SDS011;6647;53.688;10.746;2023-06-14T03:58:29;7.30;;;4.72;;
13163;SDS011;6647;53.688;10.746;2023-06-14T03:59:30;11.47;;;4.50;;
13163;SDS011;6647;53.688;10.746;2023-06-14T04:00:31;7.53;;;4.63;;
13163;SDS011;6647;53.688;10.746;2023-06-14T04:01:32;8.02;;;4.20;;
13163;SDS011;6647;53.688;10.746;2023-06-14T04:02:34;13.13;;;4.03;;
13163;SDS011;6647;53.688;10.746;2023-06-14T04:03:35;9.77;;;4.53;;
13163;SDS011;6647;53.688;10.746;2023-06-14T04:04:35;5.43;;;4.03;;
13163;SDS011;6647;53.688;10.746;2023-06-14T04:05:36;8.93;;;3.90;;
13163;SDS011;6647;53.688;10.746;2023-06-14T04:06:37;8.20;;;4.70;;
13163;SDS011;6647;53.688;10.746;2023-06-14T04:07:37;9.10;;;4.47;;
13163;SDS011;6647;53.688;10.746;2023-06-14T04:08:39;7.85;;;4.30;;
13163;SDS011;6647;53.688;10.746;2023-06-14T04:09:41;9.70;;;4.82;;
13163;SDS011;6647;53.688;10.746;2023-06-14T04:10:42;5.33;;;4.20;;
13163;SDS011;6647;53.688;10.746;2023-06-14T04:11:42;8.33;;;4.47;;
13163;SDS011;6647;53.688;10.746;2023-06-14T04:12:42;9.17;;;4.77;;
13163;SDS011;6647;53.688;10.746;2023-06-14T04:13:43;8.80;;;4.90;;
13163;SDS011;6647;53.688;10.746;2023-06-14T04:14:44;9.17;;;4.50;;
13163;SDS011;6647;53.688;10.746;2023-06-14T04:15:44;5.17;;;4.30;;
13163;SDS011;6647;53.688;10.746;2023-06-14T04:16:46;8.25;;;4.90;;
13163;SDS011;6647;53.688;10.746;2023-06-14T04:17:47;9.70;;;4.13;;
13163;SDS011;6647;53.688;10.746;2023-06-14T04:18:48;9.27;;;4.90;;
13163;SDS011;6647;53.688;10.746;2023-06-14T04:19:51;10.18;;;5.15;;
13163;SDS011;6647;53.688;10.746;2023-06-14T04:20:52;9.33;;;4.80;;
13163;SDS011;6647;53.688;10.746;2023-06-14T04:21:53;9.30;;;4.97;;
13163;SDS011;6647;53.688;10.746;2023-06-14T04:22:56;6.50;;;4.63;;
13163;SDS011;6647;53.688;10.746;2023-06-14T04:23:57;16.77;;;5.75;;
13163;SDS011;6647;53.688;10.746;2023-06-14T04:24:57;11.70;;;5.37;;
13163;SDS011;6647;53.688;10.746;2023-06-14T04:25:59;5.82;;;4.32;;
13163;SDS011;6647;53.688;10.746;2023-06-14T04:27:02;5.60;;;3.85;;
13163;SDS011;6647;53.688;10.746;2023-06-14T04:28:03;11.90;;;4.40;;
13163;SDS011;6647;53.688;10.746;2023-06-14T04:29:03;9.77;;;4.20;;
13163;SDS011;6647;53.688;10.746;2023-06-14T04:30:04;9.67;;;4.47;;
13163;SDS011;6647;53.688;10.746;2023-06-14T04:31:08;8.88;;;4.32;;
13163;SDS011;6647;53.688;10.746;2023-06-14T04:32:09;8.30;;;5.07;;
13163;SDS011;6647;53.688;10.746;2023-06-14T04:33:10;5.75;;;5.03;;
13163;SDS011;6647;53.688;10.746;2023-06-14T04:34:11;7.47;;;4.00;;
13163;SDS011;6647;53.688;10.746;2023-06-14T04:35:16;8.90;;;4.40;;
13163;SDS011;6647;53.688;10.746;2023-06-14T04:36:17;8.23;;;4.40;;
13163;SDS011;6647;53.688;10.746;2023-06-14T04:37:17;12.07;;;4.57;;
13163;SDS011;6647;53.688;10.746;2023-06-14T04:38:19;14.20;;;4.78;;
13163;SDS011;6647;53.688;10.746;2023-06-14T04:39:24;8.10;;;4.53;;
13163;SDS011;6647;53.688;10.746;2023-06-14T04:40:26;10.05;;;4.72;;
13163;SDS011;6647;53.688;10.746;2023-06-14T04:41:26;10.00;;;4.60;;
13163;SDS011;6647;53.688;10.746;2023-06-14T04:42:30;8.75;;;5.15;;
13163;SDS011;6647;53.688;10.746;2023-06-14T04:43:31;11.52;;;4.60;;
13163;SDS011;6647;53.688;10.746;2023-06-14T04:44:38;9.52;;;4.38;;
13163;SDS011;6647;53.688;10.746;2023-06-14T04:45:40;12.85;;;4.30;;
13163;SDS011;6647;53.688;10.746;2023-06-14T04:46:41;8.65;;;4.38;;
13163;SDS011;6647;53.688;10.746;2023-06-14T04:47:47;9.52;;;4.38;;
13163;SDS011;6647;53.688;10.746;2023-06-14T04:48:48;7.77;;;4.10;;
13163;SDS011;6647;53.688;10.746;2023-06-14T04:49:50;5.90;;;4.47;;
13163;SDS011;6647;53.688;10.746;2023-06-14T04:50:53;9.10;;;4.65;;
13163;SDS011;6647;53.688;10.746;2023-06-14T04:51:56;11.50;;;4.43;;
13163;SDS011;6647;53.688;10.746;2023-06-14T04:52:59;8.38;;;5.05;;
13163;SDS011;6647;53.688;10.746;2023-06-14T04:54:00;10.53;;;4.37;;
13163;SDS011;6647;53.688;10.746;2023-06-14T04:55:01;8.45;;;4.38;;
13163;SDS011;6647;53.688;10.746;2023-06-14T04:56:02;6.97;;;3.67;;
13163;SDS011;6647;53.688;10.746;2023-06-14T04:57:04;13.77;;;5.05;;
13163;SDS011;6647;53.688;10.746;2023-06-14T04:58:05;7.65;;;4.60;;
13163;SDS011;6647;53.688;10.746;2023-06-14T04:59:06;9.07;;;4.25;;
13163;SDS011;6647;53.688;10.746;2023-06-14T05:00:07;7.40;;;4.50;;
13163;SDS011;6647;53.688;10.746;2023-06-14T05:01:09;8.45;;;3.88;;
13163;SDS011;6647;53.688;10.746;2023-06-14T05:02:10;7.30;;;4.67;;
13163;SDS011;6647;53.688;10.746;2023-06-14T05:03:12;11.63;;;4.03;;
13163;SDS011;6647;53.688;10.746;2023-06-14T05:04:16;6.85;;;4.70;;
13163;SDS011;6647;53.688;10.746;2023-06-14T05:05:16;7.97;;;4.40;;
13163;SDS011;6647;53.688;10.746;2023-06-14T05:06:17;7.90;;;4.67;;
13163;SDS011;6647;53.688;10.746;2023-06-14T05:07:18;6.17;;;4.60;;
13163;SDS011;6647;53.688;10.746;2023-06-14T05:08:20;8.30;;;4.73;;
13163;SDS011;6647;53.688;10.746;2023-06-14T05:09:23;4.78;;;4.15;;
13163;SDS011;6647;53.688;10.746;2023-06-14T05:10:24;9.37;;;4.60;;
13163;SDS011;6647;53.688;10.746;2023-06-14T05:11:24;7.75;;;4.80;;
13163;SDS011;6647;53.688;10.746;2023-06-14T05:12:26;9.38;;;4.50;;
13163;SDS011;6647;53.688;10.746;2023-06-14T05:13:27;7.50;;;4.00;;
13163;SDS011;6647;53.688;10.746;2023-06-14T05:14:28;7.03;;;4.50;;
13163;SDS011;6647;53.688;10.746;2023-06-14T05:15:28;9.83;;;4.87;;
13163;SDS011;6647;53.688;10.746;2023-06-14T05:16:29;13.60;;;5.22;;
13163;SDS011;6647;53.688;10.746;2023-06-14T05:17:30;9.60;;;5.23;;
13163;SDS011;6647;53.688;10.746;2023-06-14T05:18:30;9.80;;;5.00;;
13163;SDS011;6647;53.688;10.746;2023-06-14T05:19:31;6.70;;;4.67;;
13163;SDS011;6647;53.688;10.746;2023-06-14T05:20:32;6.70;;;4.50;;
13163;SDS011;6647;53.688;10.746;2023-06-14T05:21:32;6.77;;;4.43;;
13163;SDS011;6647;53.688;10.746;2023-06-14T05:22:34;14.20;;;5.32;;
13163;SDS011;6647;53.688;10.746;2023-06-14T05:23:34;7.63;;;4.03;;
13163;SDS011;6647;53.688;10.746;2023-06-14T05:24:35;6.63;;;3.97;;
13163;SDS011;6647;53.688;10.746;2023-06-14T05:25:36;7.10;;;4.73;;
13163;SDS011;6647;53.688;10.746;2023-06-14T05:26:37;13.18;;;4.82;;
13163;SDS011;6647;53.688;10.746;2023-06-14T05:27:38;8.70;;;4.20;;
13163;SDS011;6647;53.688;10.746;2023-06-14T05:28:41;9.45;;;4.70;;
13163;SDS011;6647;53.688;10.746;2023-06-14T05:29:41;11.77;;;4.83;;
13163;SDS011;6647;53.688;10.746;2023-06-14T05:30:42;7.23;;;4.80;;
13163;SDS011;6647;53.688;10.746;2023-06-14T05:31:48;12.40;;;4.85;;
13163;SDS011;6647;53.688;10.746;2023-06-14T05:32:49;8.57;;;4.80;;
13163;SDS011;6647;53.688;10.746;2023-06-14T05:33:50;7.05;;;4.32;;
13163;SDS011;6647;53.688;10.746;2023-06-14T05:34:51;11.70;;;5.13;;
13163;SDS011;6647;53.688;10.746;2023-06-14T05:35:51;8.13;;;4.93;;
13163;SDS011;6647;53.688;10.746;2023-06-14T05:36:52;9.23;;;5.10;;
13163;SDS011;6647;53.688;10.746;2023-06-14T05:37:52;12.47;;;5.40;;
13163;SDS011;6647;53.688;10.746;2023-06-14T05:38:54;8.93;;;4.70;;
13163;SDS011;6647;53.688;10.746;2023-06-14T05:40:03;6.38;;;4.55;;
13163;SDS011;6647;53.688;10.746;2023-06-14T05:41:06;14.65;;;4.75;;
13163;SDS011;6647;53.688;10.746;2023-06-14T05:42:06;7.63;;;4.30;;
13163;SDS011;6647;53.688;10.746;2023-06-14T05:43:07;11.70;;;4.63;;
13163;SDS011;6647;53.688;10.746;2023-06-14T05:44:09;6.70;;;4.33;;
13163;SDS011;6647;53.688;10.746;2023-06-14T05:45:09;6.90;;;4.65;;
13163;SDS011;6647;53.688;10.746;2023-06-14T05:46:10;10.70;;;4.60;;
13163;SDS011;6647;53.688;10.746;2023-06-14T05:47:10;6.00;;;4.33;;
13163;SDS011;6647;53.688;10.746;2023-06-14T05:48:11;9.20;;;4.67;;
13163;SDS011;6647;53.688;10.746;2023-06-14T05:49:12;8.35;;;4.10;;
13163;SDS011;6647;53.688;10.746;2023-06-14T05:50:13;10.70;;;4.30;;
13163;SDS011;6647;53.688;10.746;2023-06-14T05:51:13;7.60;;;4.90;;
13163;SDS011;6647;53.688;10.746;2023-06-14T05:52:14;10.18;;;4.75;;
13163;SDS011;6647;53.688;10.746;2023-06-14T05:53:15;14.40;;;4.30;;
13163;SDS011;6647;53.688;10.746;2023-06-14T05:54:15;11.47;;;4.73;;
13163;SDS011;6647;53.688;10.746;2023-06-14T05:55:16;7.00;;;4.80;;
13163;SDS011;6647;53.688;10.746;2023-06-14T05:56:17;8.13;;;4.60;;
13163;SDS011;6647;53.688;10.746;2023-06-14T05:57:18;7.73;;;4.53;;
13163;SDS011;6647;53.688;10.746;2023-06-14T05:58:18;8.00;;;4.60;;
13163;SDS011;6647;53.688;10.746;2023-06-14T05:59:18;5.17;;;3.97;;
13163;SDS011;6647;53.688;10.746;2023-06-14T06:00:20;6.35;;;4.43;;
13163;SDS011;6647;53.688;10.746;2023-06-14T06:01:20;6.93;;;3.93;;
13163;SDS011;6647;53.688;10.746;2023-06-14T06:02:21;13.00;;;4.60;;
13163;SDS011;6647;53.688;10.746;2023-06-14T06:03:22;16.37;;;4.30;;
13163;SDS011;6647;53.688;10.746;2023-06-14T06:04:23;18.50;;;5.00;;
13163;SDS011;6647;53.688;10.746;2023-06-14T06:05:23;11.07;;;4.57;;
13163;SDS011;6647;53.688;10.746;2023-06-14T06:06:24;4.10;;;3.70;;
13163;SDS011;6647;53.688;10.746;2023-06-14T06:07:25;6.60;;;4.15;;
13163;SDS011;6647;53.688;10.746;2023-06-14T06:08:26;6.80;;;4.10;;
13163;SDS011;6647;53.688;10.746;2023-06-14T06:09:27;6.30;;;4.07;;
13163;SDS011;6647;53.688;10.746;2023-06-14T06:10:28;8.20;;;4.37;;
13163;SDS011;6647;53.688;10.746;2023-06-14T06:11:28;9.63;;;4.13;;
13163;SDS011;6647;53.688;10.746;2023-06-14T06:12:29;6.27;;;3.47;;